ADDS METAR Data INFO
IDs: Format: Raw Decoded Include TAF

Data at: 1332 UTC 25 Sep 2017

KCOD 251256Z AUTO 18005KT 10SM -RA BKN032 OVC042 04/02 A3011 RMK AO2 RAB38 SLP208 P0000 T00440022
KCOD 251156Z AUTO 00000KT 10SM BKN055 04/02 A3011 RMK AO2 SLP205 60000 T00390017 10056 20039 55001
KCOD 251056Z AUTO 00000KT 10SM OVC050 04/02 A3011 RMK AO2 SLP205 T00390017
KCOD 250956Z AUTO 00000KT 10SM OVC050 04/02 A3011 RMK AO2 SLP203 T00440017
KCOD 250856Z AUTO 00000KT 10SM BKN050 OVC090 04/02 A3011 RMK AO2 SLP207 60000 T00440022 57005
KCOD 250756Z AUTO 00000KT 10SM FEW050 BKN080 05/02 A3012 RMK AO2 SLP207 T00500017
KCOD 250656Z AUTO 28003KT 10SM FEW040 05/02 A3012 RMK AO2 RAB06E34 SLP211 P0000 T00500017 400780017
KCOD 250556Z AUTO 00000KT 10SM OVC050 06/01 A3013 RMK AO2 SLP213 T00560011 10072 20050 51009
KCOD 250456Z AUTO 00000KT 10SM OVC050 06/02 A3012 RMK AO2 SLP212 T00560017
KCOD 250356Z AUTO 00000KT 10SM BKN034 OVC065 06/02 A3012 RMK AO2 SLP211 T00560017
KCOD 250256Z AUTO 35004KT 10SM OVC065 05/02 A3010 RMK AO2 SLP209 T00500022 58002
KCOD 250156Z AUTO 02003KT 10SM OVC070 06/02 A3011 RMK AO2 SLP211 T00560017
KCOD 250056Z AUTO 03003KT 10SM OVC065 06/02 A3011 RMK AO2 SLP211 T00610017
KCOD 242356Z AUTO 33005KT 10SM OVC065 07/01 A3011 RMK AO2 SLP210 T00720006 10078 20050 53003
KCOD 242256Z AUTO 01006KT 10SM SCT033 OVC060 07/01 A3009 RMK AO2 SLP202 T00720006
KCOD 242156Z AUTO 34007KT 10SM OVC060 08/00 A3009 RMK AO2 SLP198 T00780000
KCOD 242056Z AUTO 02005KT 10SM OVC055 07/00 A3010 RMK AO2 SLP204 T00670000 55002
KCOD 241956Z AUTO 33004KT 10SM OVC055 07/01 A3009 RMK AO2 SLP200 T00720006
KCOD 241948Z AUTO 33006KT 10SM FEW027 OVC055 07/01 A3009 RMK AO2
KCOD 241856Z AUTO 32007KT 10SM BKN025 OVC055 06/01 A3010 RMK AO2 SLP207 T00610006
KCOD 241824Z AUTO 32005KT 10SM BKN020 BKN036 OVC055 06/01 A3011 RMK AO2
KCOD 241756Z AUTO VRB05KT 10SM FEW020 SCT034 OVC045 05/01 A3011 RMK AO2 SLP211 T00500011 10050 20017 53003
KCOD 241739Z AUTO 35008KT 10SM FEW016 SCT034 OVC045 05/01 A3011 RMK AO2
KCOD 241656Z AUTO 01009KT 10SM BKN016 BKN035 OVC042 04/01 A3011 RMK AO2 SLP210 T00440011
KCOD 241556Z AUTO 36008KT 10SM BKN018 OVC055 04/01 A3010 RMK AO2 SLP209 T00390011
KCOD 241456Z AUTO 04007KT 9SM OVC055 03/02 A3010 RMK AO2 SLP211 T00280017 51007
KCOD 241356Z AUTO 04007KT 10SM SCT036 OVC060 03/01 A3010 RMK AO2 SLP211 T00280006
KCOD 241256Z AUTO 01007KT 10SM OVC050 02/01 A3009 RMK AO2 SLP207 T00220006 FZRANO
KCOD 241156Z AUTO 04009KT 10SM SCT060 02/01 A3007 RMK AO2 SLP202 T00170011 10039 20017 58003 FZRANO
KCOD 241056Z AUTO 05007KT 10SM FEW100 03/01 A3008 RMK AO2 SLP200 T00280011
KCOD 240956Z AUTO 02008KT 10SM OVC095 03/00 A3008 RMK AO2 SLP200 T00330000
KCOD 240856Z AUTO 35004KT 10SM BKN095 03/00 A3008 RMK AO2 SLP206 T00280000 57003
KCOD 240756Z AUTO 34004KT 10SM BKN075 BKN095 04/01 A3009 RMK AO2 SLP204 T00390006
KCOD 240656Z AUTO 00000KT 10SM SCT075 BKN100 04/01 A3009 RMK AO2 SLP203 T00390006 400560017
KCOD 240556Z AUTO 00000KT 10SM BKN049 04/01 A3010 RMK AO2 SLP208 T00390006 10044 20033 56002
KCOD 240456Z AUTO 32003KT 10SM FEW023 SCT050 OVC075 04/01 A3010 RMK AO2 SLP210 T00390011
KCOD 240356Z AUTO 36007KT 10SM OVC025 04/01 A3010 RMK AO2 SLP211 T00390006
KCOD 240256Z AUTO 35008KT 10SM OVC023 04/01 A3010 RMK AO2 SLP212 T00390006 53009
KCOD 240156Z AUTO 01010KT 10SM OVC017 04/02 A3009 RMK AO2 SLP211 T00390017